sensor_id;sensor_type;location;lat;lon;timestamp;temperature;humidity
51615;DHT22;37695;52.960;6.188;2022-12-18T00:00:46;-0.90;99.90
51615;DHT22;37695;52.960;6.188;2022-12-18T00:03:13;-1.00;99.90
51615;DHT22;37695;52.960;6.188;2022-12-18T00:05:49;-1.00;99.90
51615;DHT22;37695;52.960;6.188;2022-12-18T00:08:15;-0.70;99.90
51615;DHT22;37695;52.960;6.188;2022-12-18T00:10:41;-1.00;99.90
51615;DHT22;37695;52.960;6.188;2022-12-18T00:13:07;-1.00;99.90
51615;DHT22;37695;52.960;6.188;2022-12-18T00:15:37;-1.20;99.90
51615;DHT22;37695;52.960;6.188;2022-12-18T00:18:03;-1.40;99.90
51615;DHT22;37695;52.960;6.188;2022-12-18T00:20:29;-3.90;99.90
51615;DHT22;37695;52.960;6.188;2022-12-18T00:22:55;-0.40;99.90
51615;DHT22;37695;52.960;6.188;2022-12-18T00:25:21;-0.40;99.90
51615;DHT22;37695;52.960;6.188;2022-12-18T00:27:47;-1.30;99.90
51615;DHT22;37695;52.960;6.188;2022-12-18T00:30:12;-0.80;99.90
51615;DHT22;37695;52.960;6.188;2022-12-18T00:32:38;-1.00;99.90
51615;DHT22;37695;52.960;6.188;2022-12-18T00:35:05;-1.00;99.90
51615;DHT22;37695;52.960;6.188;2022-12-18T00:37:31;-2.20;99.90
51615;DHT22;37695;52.960;6.188;2022-12-18T00:39:58;-2.20;99.90
51615;DHT22;37695;52.960;6.188;2022-12-18T00:42:23;-0.70;99.90
51615;DHT22;37695;52.960;6.188;2022-12-18T00:45:08;-2.30;99.90
51615;DHT22;37695;52.960;6.188;2022-12-18T00:47:33;-2.40;99.90
51615;DHT22;37695;52.960;6.188;2022-12-18T00:49:59;-1.30;99.90
51615;DHT22;37695;52.960;6.188;2022-12-18T00:52:24;-1.30;99.90
51615;DHT22;37695;52.960;6.188;2022-12-18T00:54:50;-1.00;99.90
51615;DHT22;37695;52.960;6.188;2022-12-18T00:57:15;-2.60;99.90
51615;DHT22;37695;52.960;6.188;2022-12-18T00:59:41;-1.60;99.90
51615;DHT22;37695;52.960;6.188;2022-12-18T01:02:07;-1.50;99.90
51615;DHT22;37695;52.960;6.188;2022-12-18T01:04:33;-1.10;99.90
51615;DHT22;37695;52.960;6.188;2022-12-18T01:06:58;-2.50;99.90
51615;DHT22;37695;52.960;6.188;2022-12-18T01:09:24;-1.20;99.90
51615;DHT22;37695;52.960;6.188;2022-12-18T01:11:49;-0.90;99.90
51615;DHT22;37695;52.960;6.188;2022-12-18T01:14:15;-1.20;99.90
51615;DHT22;37695;52.960;6.188;2022-12-18T01:16:41;-1.90;99.90
51615;DHT22;37695;52.960;6.188;2022-12-18T01:19:07;-2.40;99.90
51615;DHT22;37695;52.960;6.188;2022-12-18T01:21:32;-1.50;99.90
51615;DHT22;37695;52.960;6.188;2022-12-18T01:23:58;-1.60;99.90
51615;DHT22;37695;52.960;6.188;2022-12-18T01:26:25;-1.10;99.90
51615;DHT22;37695;52.960;6.188;2022-12-18T01:28:51;-1.00;99.90
51615;DHT22;37695;52.960;6.188;2022-12-18T01:31:28;-3.00;99.90
51615;DHT22;37695;52.960;6.188;2022-12-18T01:33:55;-2.70;99.90
51615;DHT22;37695;52.960;6.188;2022-12-18T01:36:29;-1.10;99.90
51615;DHT22;37695;52.960;6.188;2022-12-18T01:38:56;-3.00;99.90
51615;DHT22;37695;52.960;6.188;2022-12-18T01:41:24;-1.20;99.90
51615;DHT22;37695;52.960;6.188;2022-12-18T01:43:53;-1.30;99.90
51615;DHT22;37695;52.960;6.188;2022-12-18T01:46:21;-3.10;99.90
51615;DHT22;37695;52.960;6.188;2022-12-18T01:48:54;-1.90;99.90
51615;DHT22;37695;52.960;6.188;2022-12-18T01:51:21;-2.30;99.90
51615;DHT22;37695;52.960;6.188;2022-12-18T01:53:48;-1.70;99.90
51615;DHT22;37695;52.960;6.188;2022-12-18T01:56:17;-3.10;99.90
51615;DHT22;37695;52.960;6.188;2022-12-18T01:58:57;-1.80;99.90
51615;DHT22;37695;52.960;6.188;2022-12-18T02:01:24;-3.10;99.90
51615;DHT22;37695;52.960;6.188;2022-12-18T02:03:50;-2.10;99.90
51615;DHT22;37695;52.960;6.188;2022-12-18T02:09:06;-3.20;99.90
51615;DHT22;37695;52.960;6.188;2022-12-18T02:14:28;-3.20;99.90
51615;DHT22;37695;52.960;6.188;2022-12-18T02:17:07;-3.20;99.90
51615;DHT22;37695;52.960;6.188;2022-12-18T02:25:27;-3.30;99.90
51615;DHT22;37695;52.960;6.188;2022-12-18T02:27:56;-3.40;99.90
51615;DHT22;37695;52.960;6.188;2022-12-18T02:30:24;-1.90;99.90
51615;DHT22;37695;52.960;6.188;2022-12-18T02:32:52;-2.00;99.90
51615;DHT22;37695;52.960;6.188;2022-12-18T02:35:23;-3.40;99.90
51615;DHT22;37695;52.960;6.188;2022-12-18T02:37:49;-1.90;99.90
51615;DHT22;37695;52.960;6.188;2022-12-18T02:40:17;-1.70;99.90
51615;DHT22;37695;52.960;6.188;2022-12-18T02:42:44;-2.90;99.90
51615;DHT22;37695;52.960;6.188;2022-12-18T02:45:10;-1.50;99.90
51615;DHT22;37695;52.960;6.188;2022-12-18T02:47:42;-1.70;99.90
51615;DHT22;37695;52.960;6.188;2022-12-18T02:50:34;-1.50;99.90
51615;DHT22;37695;52.960;6.188;2022-12-18T02:53:24;-1.80;99.90
51615;DHT22;37695;52.960;6.188;2022-12-18T02:59:00;-3.40;99.90
51615;DHT22;37695;52.960;6.188;2022-12-18T03:04:16;-3.60;99.90
51615;DHT22;37695;52.960;6.188;2022-12-18T03:06:47;-3.70;99.90
51615;DHT22;37695;52.960;6.188;2022-12-18T03:09:27;-3.70;99.90
51615;DHT22;37695;52.960;6.188;2022-12-18T03:12:02;-2.80;99.90
51615;DHT22;37695;52.960;6.188;2022-12-18T03:15:02;-2.10;99.90
51615;DHT22;37695;52.960;6.188;2022-12-18T03:17:31;-3.80;99.90
51615;DHT22;37695;52.960;6.188;2022-12-18T03:20:05;-2.90;99.90
51615;DHT22;37695;52.960;6.188;2022-12-18T03:22:33;-4.00;99.90
51615;DHT22;37695;52.960;6.188;2022-12-18T03:25:02;-2.40;99.90
51615;DHT22;37695;52.960;6.188;2022-12-18T03:27:31;-4.10;99.90
51615;DHT22;37695;52.960;6.188;2022-12-18T03:30:10;-4.10;99.90
51615;DHT22;37695;52.960;6.188;2022-12-18T03:32:51;-4.10;99.90
51615;DHT22;37695;52.960;6.188;2022-12-18T03:35:22;-4.10;99.90
51615;DHT22;37695;52.960;6.188;2022-12-18T03:37:49;-4.10;99.90
51615;DHT22;37695;52.960;6.188;2022-12-18T03:40:14;-2.40;99.90
51615;DHT22;37695;52.960;6.188;2022-12-18T03:42:51;-3.50;99.90
51615;DHT22;37695;52.960;6.188;2022-12-18T03:45:32;-4.20;99.90
51615;DHT22;37695;52.960;6.188;2022-12-18T03:48:07;-4.20;99.90
51615;DHT22;37695;52.960;6.188;2022-12-18T03:50:48;-4.30;99.90
51615;DHT22;37695;52.960;6.188;2022-12-18T03:55:48;-4.30;99.90
51615;DHT22;37695;52.960;6.188;2022-12-18T03:58:18;-2.60;99.90
51615;DHT22;37695;52.960;6.188;2022-12-18T04:00:45;-4.40;99.90
51615;DHT22;37695;52.960;6.188;2022-12-18T04:03:13;-4.40;99.90
51615;DHT22;37695;52.960;6.188;2022-12-18T04:05:41;-4.40;99.90
51615;DHT22;37695;52.960;6.188;2022-12-18T04:08:08;-4.40;99.90
51615;DHT22;37695;52.960;6.188;2022-12-18T04:10:33;-3.10;99.90
51615;DHT22;37695;52.960;6.188;2022-12-18T04:13:00;-4.10;99.90
51615;DHT22;37695;52.960;6.188;2022-12-18T04:15:26;-4.30;99.90
51615;DHT22;37695;52.960;6.188;2022-12-18T04:17:51;-4.50;99.90
51615;DHT22;37695;52.960;6.188;2022-12-18T04:20:17;-4.50;99.90
51615;DHT22;37695;52.960;6.188;2022-12-18T04:22:43;-4.50;99.90
51615;DHT22;37695;52.960;6.188;2022-12-18T04:25:09;-2.80;99.90
51615;DHT22;37695;52.960;6.188;2022-12-18T04:27:34;-4.50;99.90
51615;DHT22;37695;52.960;6.188;2022-12-18T04:30:00;-3.40;99.90
51615;DHT22;37695;52.960;6.188;2022-12-18T04:32:26;-2.50;99.90
51615;DHT22;37695;52.960;6.188;2022-12-18T04:34:51;-4.60;99.90
51615;DHT22;37695;52.960;6.188;2022-12-18T04:37:17;-2.70;99.90
51615;DHT22;37695;52.960;6.188;2022-12-18T04:39:43;-4.60;99.90
51615;DHT22;37695;52.960;6.188;2022-12-18T04:42:08;-4.60;99.90
51615;DHT22;37695;52.960;6.188;2022-12-18T04:44:34;-4.60;99.90
51615;DHT22;37695;52.960;6.188;2022-12-18T04:46:59;-4.60;99.90
51615;DHT22;37695;52.960;6.188;2022-12-18T04:49:25;-4.60;99.90
51615;DHT22;37695;52.960;6.188;2022-12-18T04:51:50;-4.30;99.90
51615;DHT22;37695;52.960;6.188;2022-12-18T04:54:20;-4.60;99.90
51615;DHT22;37695;52.960;6.188;2022-12-18T04:56:45;-2.90;99.90
51615;DHT22;37695;52.960;6.188;2022-12-18T04:59:11;-4.60;99.90
51615;DHT22;37695;52.960;6.188;2022-12-18T05:01:37;-4.60;99.90
51615;DHT22;37695;52.960;6.188;2022-12-18T05:04:03;-2.90;99.90
51615;DHT22;37695;52.960;6.188;2022-12-18T05:06:28;-4.70;99.90
51615;DHT22;37695;52.960;6.188;2022-12-18T05:08:54;-4.70;99.90
51615;DHT22;37695;52.960;6.188;2022-12-18T05:11:20;-4.70;99.90
51615;DHT22;37695;52.960;6.188;2022-12-18T05:13:45;-2.90;99.90
51615;DHT22;37695;52.960;6.188;2022-12-18T05:16:12;-4.80;99.90
51615;DHT22;37695;52.960;6.188;2022-12-18T05:18:38;-4.80;99.90
51615;DHT22;37695;52.960;6.188;2022-12-18T05:21:04;-4.80;99.90
51615;DHT22;37695;52.960;6.188;2022-12-18T05:23:30;-4.80;99.90
51615;DHT22;37695;52.960;6.188;2022-12-18T05:25:58;-4.90;99.90
51615;DHT22;37695;52.960;6.188;2022-12-18T05:28:25;-4.90;99.90
51615;DHT22;37695;52.960;6.188;2022-12-18T05:30:54;-4.90;99.90
51615;DHT22;37695;52.960;6.188;2022-12-18T05:33:21;-4.80;99.90
51615;DHT22;37695;52.960;6.188;2022-12-18T05:35:55;-3.40;99.90
51615;DHT22;37695;52.960;6.188;2022-12-18T05:38:22;-4.90;99.90
51615;DHT22;37695;52.960;6.188;2022-12-18T05:40:49;-5.00;99.90
51615;DHT22;37695;52.960;6.188;2022-12-18T05:43:15;-5.00;99.90
51615;DHT22;37695;52.960;6.188;2022-12-18T05:45:41;-5.10;99.90
51615;DHT22;37695;52.960;6.188;2022-12-18T05:48:07;-5.10;99.90
51615;DHT22;37695;52.960;6.188;2022-12-18T05:50:41;-3.30;99.90
51615;DHT22;37695;52.960;6.188;2022-12-18T05:53:07;-5.20;99.90
51615;DHT22;37695;52.960;6.188;2022-12-18T05:55:38;-5.20;99.90
51615;DHT22;37695;52.960;6.188;2022-12-18T05:58:05;-5.20;99.90
51615;DHT22;37695;52.960;6.188;2022-12-18T06:00:32;-5.20;99.90
51615;DHT22;37695;52.960;6.188;2022-12-18T06:02:59;-5.20;99.90
51615;DHT22;37695;52.960;6.188;2022-12-18T06:05:25;-5.20;99.90
51615;DHT22;37695;52.960;6.188;2022-12-18T06:07:50;-5.20;99.90
51615;DHT22;37695;52.960;6.188;2022-12-18T06:10:16;-5.20;99.90
51615;DHT22;37695;52.960;6.188;2022-12-18T06:12:42;-5.20;99.90
51615;DHT22;37695;52.960;6.188;2022-12-18T06:15:08;-5.20;99.90
51615;DHT22;37695;52.960;6.188;2022-12-18T06:17:34;-5.20;99.90
51615;DHT22;37695;52.960;6.188;2022-12-18T06:20:00;-5.20;99.90
51615;DHT22;37695;52.960;6.188;2022-12-18T06:22:27;-3.80;99.90
51615;DHT22;37695;52.960;6.188;2022-12-18T06:24:53;-5.30;99.90
51615;DHT22;37695;52.960;6.188;2022-12-18T06:27:18;-5.30;99.90
51615;DHT22;37695;52.960;6.188;2022-12-18T06:29:44;-5.30;99.90
51615;DHT22;37695;52.960;6.188;2022-12-18T06:32:10;-5.20;99.90
51615;DHT22;37695;52.960;6.188;2022-12-18T06:34:39;-5.20;99.90
51615;DHT22;37695;52.960;6.188;2022-12-18T06:37:05;-5.20;99.90
51615;DHT22;37695;52.960;6.188;2022-12-18T06:39:30;-5.20;99.90
51615;DHT22;37695;52.960;6.188;2022-12-18T06:41:56;-5.10;99.90
51615;DHT22;37695;52.960;6.188;2022-12-18T06:44:22;-5.00;99.90
51615;DHT22;37695;52.960;6.188;2022-12-18T06:46:47;-5.00;99.90
51615;DHT22;37695;52.960;6.188;2022-12-18T06:49:13;-5.10;99.90
51615;DHT22;37695;52.960;6.188;2022-12-18T06:51:38;-5.10;99.90
51615;DHT22;37695;52.960;6.188;2022-12-18T06:54:04;-3.30;99.90
51615;DHT22;37695;52.960;6.188;2022-12-18T06:56:30;-4.90;99.90
51615;DHT22;37695;52.960;6.188;2022-12-18T06:58:55;-5.00;99.90
51615;DHT22;37695;52.960;6.188;2022-12-18T07:01:22;-5.00;99.90
51615;DHT22;37695;52.960;6.188;2022-12-18T07:03:52;-5.00;99.90
51615;DHT22;37695;52.960;6.188;2022-12-18T07:06:19;-3.40;99.90
51615;DHT22;37695;52.960;6.188;2022-12-18T07:08:46;-3.80;99.90
51615;DHT22;37695;52.960;6.188;2022-12-18T07:11:12;-4.90;99.90
51615;DHT22;37695;52.960;6.188;2022-12-18T07:13:38;-4.90;99.90
51615;DHT22;37695;52.960;6.188;2022-12-18T07:16:08;-4.90;99.90
51615;DHT22;37695;52.960;6.188;2022-12-18T07:18:34;-4.90;99.90
51615;DHT22;37695;52.960;6.188;2022-12-18T07:21:05;-4.90;99.90
51615;DHT22;37695;52.960;6.188;2022-12-18T07:23:32;-5.00;99.90
51615;DHT22;37695;52.960;6.188;2022-12-18T07:26:06;-5.00;99.90
51615;DHT22;37695;52.960;6.188;2022-12-18T07:28:33;-5.00;99.90
51615;DHT22;37695;52.960;6.188;2022-12-18T07:31:03;-3.50;99.90
51615;DHT22;37695;52.960;6.188;2022-12-18T07:33:29;-5.10;99.90
51615;DHT22;37695;52.960;6.188;2022-12-18T07:35:54;-5.10;99.90
51615;DHT22;37695;52.960;6.188;2022-12-18T07:38:20;-5.10;99.90
51615;DHT22;37695;52.960;6.188;2022-12-18T07:40:46;-5.00;99.90
51615;DHT22;37695;52.960;6.188;2022-12-18T07:43:11;-5.00;99.90
51615;DHT22;37695;52.960;6.188;2022-12-18T07:45:37;-3.60;99.90
51615;DHT22;37695;52.960;6.188;2022-12-18T07:48:02;-4.70;99.90
51615;DHT22;37695;52.960;6.188;2022-12-18T07:50:28;-4.90;99.90
51615;DHT22;37695;52.960;6.188;2022-12-18T07:52:54;-4.90;99.90
51615;DHT22;37695;52.960;6.188;2022-12-18T07:55:19;-4.90;99.90
51615;DHT22;37695;52.960;6.188;2022-12-18T07:57:45;-2.90;99.90
51615;DHT22;37695;52.960;6.188;2022-12-18T08:00:11;-4.80;99.90
51615;DHT22;37695;52.960;6.188;2022-12-18T08:02:37;-4.80;99.90
51615;DHT22;37695;52.960;6.188;2022-12-18T08:05:03;-4.80;99.90
51615;DHT22;37695;52.960;6.188;2022-12-18T08:07:29;-4.70;99.90
51615;DHT22;37695;52.960;6.188;2022-12-18T08:09:54;-4.70;99.90
51615;DHT22;37695;52.960;6.188;2022-12-18T08:12:20;-4.70;99.90
51615;DHT22;37695;52.960;6.188;2022-12-18T08:14:45;-4.60;99.90
51615;DHT22;37695;52.960;6.188;2022-12-18T08:17:11;-4.60;99.90
51615;DHT22;37695;52.960;6.188;2022-12-18T08:19:36;-4.50;99.90
51615;DHT22;37695;52.960;6.188;2022-12-18T08:22:02;-4.40;99.90
51615;DHT22;37695;52.960;6.188;2022-12-18T08:24:28;-2.50;99.90
51615;DHT22;37695;52.960;6.188;2022-12-18T08:26:53;-4.40;99.90
51615;DHT22;37695;52.960;6.188;2022-12-18T08:29:19;-2.90;99.90
51615;DHT22;37695;52.960;6.188;2022-12-18T08:31:45;-4.30;99.90
51615;DHT22;37695;52.960;6.188;2022-12-18T08:34:10;-4.20;99.90
51615;DHT22;37695;52.960;6.188;2022-12-18T08:36:36;-4.20;99.90
51615;DHT22;37695;52.960;6.188;2022-12-18T08:39:02;-2.70;99.90
51615;DHT22;37695;52.960;6.188;2022-12-18T08:41:27;-4.20;99.90
51615;DHT22;37695;52.960;6.188;2022-12-18T08:43:53;-3.20;99.90
51615;DHT22;37695;52.960;6.188;2022-12-18T08:46:39;-4.20;99.90
51615;DHT22;37695;52.960;6.188;2022-12-18T08:49:06;-4.10;99.90
51615;DHT22;37695;52.960;6.188;2022-12-18T08:51:33;-4.00;99.90
51615;DHT22;37695;52.960;6.188;2022-12-18T08:53:59;-4.00;99.90
51615;DHT22;37695;52.960;6.188;2022-12-18T08:56:25;-3.90;99.90
51615;DHT22;37695;52.960;6.188;2022-12-18T08:58:52;-3.80;99.90
51615;DHT22;37695;52.960;6.188;2022-12-18T09:01:18;-3.70;99.90
51615;DHT22;37695;52.960;6.188;2022-12-18T09:03:47;-2.00;99.90
51615;DHT22;37695;52.960;6.188;2022-12-18T09:06:14;-3.60;99.90
51615;DHT22;37695;52.960;6.188;2022-12-18T09:08:42;-2.50;99.90
51615;DHT22;37695;52.960;6.188;2022-12-18T09:11:14;-3.50;99.90
51615;DHT22;37695;52.960;6.188;2022-12-18T09:13:40;-3.40;99.90
51615;DHT22;37695;52.960;6.188;2022-12-18T09:16:05;-2.20;99.90
51615;DHT22;37695;52.960;6.188;2022-12-18T09:18:31;-3.40;99.90
51615;DHT22;37695;52.960;6.188;2022-12-18T09:20:56;-3.40;99.90
51615;DHT22;37695;52.960;6.188;2022-12-18T09:23:22;-3.40;99.90
51615;DHT22;37695;52.960;6.188;2022-12-18T09:25:48;-3.30;99.90
51615;DHT22;37695;52.960;6.188;2022-12-18T09:28:15;-1.70;99.90
51615;DHT22;37695;52.960;6.188;2022-12-18T09:30:44;-2.00;99.90
51615;DHT22;37695;52.960;6.188;2022-12-18T09:33:10;-2.30;99.90
51615;DHT22;37695;52.960;6.188;2022-12-18T09:35:39;-1.30;99.90
51615;DHT22;37695;52.960;6.188;2022-12-18T09:38:06;-2.30;99.90
51615;DHT22;37695;52.960;6.188;2022-12-18T09:40:41;-0.90;99.90
51615;DHT22;37695;52.960;6.188;2022-12-18T09:43:13;-2.60;99.90
51615;DHT22;37695;52.960;6.188;2022-12-18T09:45:43;-2.80;99.90
51615;DHT22;37695;52.960;6.188;2022-12-18T09:48:19;-1.50;99.90
51615;DHT22;37695;52.960;6.188;2022-12-18T09:50:46;-2.70;99.90
51615;DHT22;37695;52.960;6.188;2022-12-18T09:53:17;-1.10;99.90
51615;DHT22;37695;52.960;6.188;2022-12-18T09:55:46;-1.60;99.90
51615;DHT22;37695;52.960;6.188;2022-12-18T09:58:26;-0.90;99.90
51615;DHT22;37695;52.960;6.188;2022-12-18T10:00:53;-2.60;99.90
51615;DHT22;37695;52.960;6.188;2022-12-18T10:03:20;-2.50;99.90
51615;DHT22;37695;52.960;6.188;2022-12-18T10:06:02;-1.70;99.90
51615;DHT22;37695;52.960;6.188;2022-12-18T10:11:22;-2.60;99.90
51615;DHT22;37695;52.960;6.188;2022-12-18T10:14:01;-2.60;99.90
51615;DHT22;37695;52.960;6.188;2022-12-18T10:22:20;-2.70;99.90
51615;DHT22;37695;52.960;6.188;2022-12-18T10:27:23;-2.60;99.90
51615;DHT22;37695;52.960;6.188;2022-12-18T10:29:49;-1.60;99.90
51615;DHT22;37695;52.960;6.188;2022-12-18T10:32:27;-2.30;99.90
51615;DHT22;37695;52.960;6.188;2022-12-18T10:34:56;-2.50;99.90
51615;DHT22;37695;52.960;6.188;2022-12-18T10:37:24;-1.80;99.90
51615;DHT22;37695;52.960;6.188;2022-12-18T10:40:07;-1.30;99.90
51615;DHT22;37695;52.960;6.188;2022-12-18T10:42:34;-2.40;99.90
51615;DHT22;37695;52.960;6.188;2022-12-18T10:45:17;-0.70;99.90
51615;DHT22;37695;52.960;6.188;2022-12-18T10:47:48;-1.40;99.90
51615;DHT22;37695;52.960;6.188;2022-12-18T10:50:26;-0.40;99.90
51615;DHT22;37695;52.960;6.188;2022-12-18T10:52:59;-1.50;99.90
51615;DHT22;37695;52.960;6.188;2022-12-18T10:55:34;-1.20;99.90
51615;DHT22;37695;52.960;6.188;2022-12-18T10:58:27;-2.00;99.90
51615;DHT22;37695;52.960;6.188;2022-12-18T11:01:08;-1.90;99.90
51615;DHT22;37695;52.960;6.188;2022-12-18T11:04:02;-1.90;99.90
51615;DHT22;37695;52.960;6.188;2022-12-18T11:06:32;-1.80;99.90
51615;DHT22;37695;52.960;6.188;2022-12-18T11:09:06;-1.10;99.90
51615;DHT22;37695;52.960;6.188;2022-12-18T11:11:51;-1.70;99.90
51615;DHT22;37695;52.960;6.188;2022-12-18T11:14:29;-1.70;99.90
51615;DHT22;37695;52.960;6.188;2022-12-18T11:16:57;-1.60;99.90
51615;DHT22;37695;52.960;6.188;2022-12-18T11:19:33;-0.80;99.90
51615;DHT22;37695;52.960;6.188;2022-12-18T11:22:00;-1.50;99.90
51615;DHT22;37695;52.960;6.188;2022-12-18T11:24:32;-1.50;99.90
51615;DHT22;37695;52.960;6.188;2022-12-18T11:27:01;-0.70;99.90
51615;DHT22;37695;52.960;6.188;2022-12-18T11:29:36;-0.60;99.90
51615;DHT22;37695;52.960;6.188;2022-12-18T11:32:30;-0.80;99.90
51615;DHT22;37695;52.960;6.188;2022-12-18T11:35:22;-1.40;99.90
51615;DHT22;37695;52.960;6.188;2022-12-18T11:37:54;-1.40;99.90
51615;DHT22;37695;52.960;6.188;2022-12-18T11:40:35;0.30;99.90
51615;DHT22;37695;52.960;6.188;2022-12-18T11:43:14;-0.10;99.90
51615;DHT22;37695;52.960;6.188;2022-12-18T11:45:54;-0.70;99.90
51615;DHT22;37695;52.960;6.188;2022-12-18T11:48:25;0.10;99.90
51615;DHT22;37695;52.960;6.188;2022-12-18T11:50:54;0.40;99.90
51615;DHT22;37695;52.960;6.188;2022-12-18T11:53:21;-1.20;99.90
51615;DHT22;37695;52.960;6.188;2022-12-18T11:56:05;-0.30;99.90
51615;DHT22;37695;52.960;6.188;2022-12-18T11:58:42;-1.20;99.90
51615;DHT22;37695;52.960;6.188;2022-12-18T12:20:20;0.10;99.90
51615;DHT22;37695;52.960;6.188;2022-12-18T12:23:03;0.60;99.90
51615;DHT22;37695;52.960;6.188;2022-12-18T12:25:45;0.60;99.90
51615;DHT22;37695;52.960;6.188;2022-12-18T12:34:20;-0.80;99.90
51615;DHT22;37695;52.960;6.188;2022-12-18T12:37:32;-0.10;99.90
51615;DHT22;37695;52.960;6.188;2022-12-18T12:40:04;-0.70;99.90
51615;DHT22;37695;52.960;6.188;2022-12-18T12:42:35;-0.70;99.90
51615;DHT22;37695;52.960;6.188;2022-12-18T12:45:38;-0.70;99.90
51615;DHT22;37695;52.960;6.188;2022-12-18T12:48:11;-0.70;99.90
51615;DHT22;37695;52.960;6.188;2022-12-18T12:50:41;0.20;99.90
51615;DHT22;37695;52.960;6.188;2022-12-18T12:53:09;-0.60;99.90
51615;DHT22;37695;52.960;6.188;2022-12-18T12:55:40;-0.60;99.90
51615;DHT22;37695;52.960;6.188;2022-12-18T12:58:25;0.90;99.90
51615;DHT22;37695;52.960;6.188;2022-12-18T13:01:17;-0.60;99.90
51615;DHT22;37695;52.960;6.188;2022-12-18T13:04:05;-0.60;99.90
51615;DHT22;37695;52.960;6.188;2022-12-18T13:06:40;-0.20;99.90
51615;DHT22;37695;52.960;6.188;2022-12-18T13:09:07;0.50;99.90
51615;DHT22;37695;52.960;6.188;2022-12-18T13:11:44;-0.50;99.90
51615;DHT22;37695;52.960;6.188;2022-12-18T13:14:32;0.50;99.90
51615;DHT22;37695;52.960;6.188;2022-12-18T13:17:26;0.10;99.90
51615;DHT22;37695;52.960;6.188;2022-12-18T13:20:06;0.50;99.90
51615;DHT22;37695;52.960;6.188;2022-12-18T13:22:42;-0.50;99.90
51615;DHT22;37695;52.960;6.188;2022-12-18T13:25:38;0.80;99.90
51615;DHT22;37695;52.960;6.188;2022-12-18T13:40:58;0.00;99.90
51615;DHT22;37695;52.960;6.188;2022-12-18T13:43:42;-0.40;99.90
51615;DHT22;37695;52.960;6.188;2022-12-18T13:49:03;-0.40;99.90
51615;DHT22;37695;52.960;6.188;2022-12-18T13:51:33;-0.40;99.90
51615;DHT22;37695;52.960;6.188;2022-12-18T13:54:01;0.50;99.90
51615;DHT22;37695;52.960;6.188;2022-12-18T13:56:30;-0.40;99.90
51615;DHT22;37695;52.960;6.188;2022-12-18T13:59:50;0.70;99.90
51615;DHT22;37695;52.960;6.188;2022-12-18T14:02:00;-0.40;99.90
51615;DHT22;37695;52.960;6.188;2022-12-18T14:04:34;0.00;99.90
51615;DHT22;37695;52.960;6.188;2022-12-18T14:07:06;-0.20;99.90
51615;DHT22;37695;52.960;6.188;2022-12-18T14:09:39;0.60;99.90
51615;DHT22;37695;52.960;6.188;2022-12-18T14:12:06;0.40;99.90
51615;DHT22;37695;52.960;6.188;2022-12-18T14:14:56;-0.40;99.90
51615;DHT22;37695;52.960;6.188;2022-12-18T14:17:22;-0.50;99.90
51615;DHT22;37695;52.960;6.188;2022-12-18T14:19:50;0.50;99.90
51615;DHT22;37695;52.960;6.188;2022-12-18T14:22:25;0.40;99.90
51615;DHT22;37695;52.960;6.188;2022-12-18T14:27:38;-0.40;99.90
51615;DHT22;37695;52.960;6.188;2022-12-18T14:30:30;-0.50;99.90
51615;DHT22;37695;52.960;6.188;2022-12-18T14:33:13;-0.50;99.90
51615;DHT22;37695;52.960;6.188;2022-12-18T14:41:00;-0.60;99.90
51615;DHT22;37695;52.960;6.188;2022-12-18T14:43:27;-0.70;99.90
51615;DHT22;37695;52.960;6.188;2022-12-18T14:45:54;-0.70;99.90
51615;DHT22;37695;52.960;6.188;2022-12-18T14:51:16;-0.70;99.90
51615;DHT22;37695;52.960;6.188;2022-12-18T14:53:45;-0.60;99.90
51615;DHT22;37695;52.960;6.188;2022-12-18T14:56:18;-0.80;99.90
51615;DHT22;37695;52.960;6.188;2022-12-18T14:59:11;-0.80;99.90
51615;DHT22;37695;52.960;6.188;2022-12-18T15:02:29;-0.80;99.90
51615;DHT22;37695;52.960;6.188;2022-12-18T15:04:38;-1.30;99.90
51615;DHT22;37695;52.960;6.188;2022-12-18T15:07:17;-0.80;99.90
51615;DHT22;37695;52.960;6.188;2022-12-18T15:10:00;-2.30;99.90
51615;DHT22;37695;52.960;6.188;2022-12-18T15:14:59;-0.80;99.90
51615;DHT22;37695;52.960;6.188;2022-12-18T15:17:25;-0.60;99.90
51615;DHT22;37695;52.960;6.188;2022-12-18T15:20:03;-2.20;99.90
51615;DHT22;37695;52.960;6.188;2022-12-18T15:22:35;-0.80;99.90
51615;DHT22;37695;52.960;6.188;2022-12-18T15:25:03;-0.70;99.90
51615;DHT22;37695;52.960;6.188;2022-12-18T15:27:46;-0.70;99.90
51615;DHT22;37695;52.960;6.188;2022-12-18T15:30:18;-0.70;99.90
51615;DHT22;37695;52.960;6.188;2022-12-18T15:32:45;-0.70;99.90
51615;DHT22;37695;52.960;6.188;2022-12-18T15:37:37;-0.70;99.90
51615;DHT22;37695;52.960;6.188;2022-12-18T15:40:03;-0.70;99.90
51615;DHT22;37695;52.960;6.188;2022-12-18T15:42:29;-0.70;99.90
51615;DHT22;37695;52.960;6.188;2022-12-18T15:45:14;-0.70;99.90
51615;DHT22;37695;52.960;6.188;2022-12-18T15:47:40;-0.60;99.90
51615;DHT22;37695;52.960;6.188;2022-12-18T15:50:07;-0.60;99.90
51615;DHT22;37695;52.960;6.188;2022-12-18T15:52:43;-0.60;99.90
51615;DHT22;37695;52.960;6.188;2022-12-18T15:55:14;-0.60;99.90
51615;DHT22;37695;52.960;6.188;2022-12-18T15:57:58;-0.60;99.90
51615;DHT22;37695;52.960;6.188;2022-12-18T16:00:24;-0.60;99.90
51615;DHT22;37695;52.960;6.188;2022-12-18T16:02:49;-0.60;99.90
51615;DHT22;37695;52.960;6.188;2022-12-18T16:05:16;-0.60;99.90
51615;DHT22;37695;52.960;6.188;2022-12-18T16:07:43;-0.60;99.90
51615;DHT22;37695;52.960;6.188;2022-12-18T16:10:09;-0.60;99.90
51615;DHT22;37695;52.960;6.188;2022-12-18T16:12:36;-0.50;99.90
51615;DHT22;37695;52.960;6.188;2022-12-18T16:15:02;-0.60;99.90
51615;DHT22;37695;52.960;6.188;2022-12-18T16:17:28;-0.70;99.90
51615;DHT22;37695;52.960;6.188;2022-12-18T16:19:54;-0.60;99.90
51615;DHT22;37695;52.960;6.188;2022-12-18T16:22:25;-0.60;99.90
51615;DHT22;37695;52.960;6.188;2022-12-18T16:24:52;-0.60;99.90
51615;DHT22;37695;52.960;6.188;2022-12-18T16:27:19;-0.60;99.90
51615;DHT22;37695;52.960;6.188;2022-12-18T16:29:45;-0.50;99.90
51615;DHT22;37695;52.960;6.188;2022-12-18T16:32:14;-0.50;99.90
51615;DHT22;37695;52.960;6.188;2022-12-18T16:34:40;-0.50;99.90
51615;DHT22;37695;52.960;6.188;2022-12-18T16:37:08;-1.90;99.90
51615;DHT22;37695;52.960;6.188;2022-12-18T16:39:35;1.10;99.90
51615;DHT22;37695;52.960;6.188;2022-12-18T16:42:03;-0.50;99.90
51615;DHT22;37695;52.960;6.188;2022-12-18T16:44:29;-0.50;99.90
51615;DHT22;37695;52.960;6.188;2022-12-18T16:46:55;-0.70;99.90
51615;DHT22;37695;52.960;6.188;2022-12-18T16:49:27;-0.40;99.90
51615;DHT22;37695;52.960;6.188;2022-12-18T16:51:53;-0.50;99.90
51615;DHT22;37695;52.960;6.188;2022-12-18T16:54:19;-0.50;99.90
51615;DHT22;37695;52.960;6.188;2022-12-18T16:56:45;0.40;99.90
51615;DHT22;37695;52.960;6.188;2022-12-18T16:59:23;-0.50;99.90
51615;DHT22;37695;52.960;6.188;2022-12-18T17:01:51;-0.50;99.90
51615;DHT22;37695;52.960;6.188;2022-12-18T17:04:17;-0.40;99.90
51615;DHT22;37695;52.960;6.188;2022-12-18T17:06:44;-0.40;99.90
51615;DHT22;37695;52.960;6.188;2022-12-18T17:09:13;-0.30;99.90
51615;DHT22;37695;52.960;6.188;2022-12-18T17:11:42;-0.30;99.90
51615;DHT22;37695;52.960;6.188;2022-12-18T17:14:10;-0.30;99.90
51615;DHT22;37695;52.960;6.188;2022-12-18T17:16:36;-0.30;99.90
51615;DHT22;37695;52.960;6.188;2022-12-18T17:19:02;-0.30;99.90